Time;durP1;ratioP1;P1;durP2;ratioP2;P2;SDS_P1;SDS_P2;PMS_P1;PMS_P2;Temp;Humidity;BMP_temperature;BMP_pressure;BME280_temperature;BME280_humidity;BME280_pressure;Samples;Min_cycle;Max_cycle;Signal;HPM_P1;HPM_P2
2022/07/21 00:00:58;;;;;;;18.05;13.63;;;;;;;20.36;100.00;97050.72;4972946;28;20041;-65
2022/07/21 00:03:24;;;;;;;17.17;12.90;;;;;;;20.53;100.00;97051.63;4973039;28;20870;-66
2022/07/21 00:05:49;;;;;;;19.52;13.85;;;;;;;20.63;100.00;97055.44;4972370;28;20077;-66
2022/07/21 00:08:15;;;;;;;17.55;13.45;;;;;;;20.58;100.00;97051.16;4972590;28;20042;-65
2022/07/21 00:10:40;;;;;;;17.65;13.95;;;;;;;20.72;100.00;97055.69;4972755;28;20039;-66
2022/07/21 00:13:06;;;;;;;16.45;13.40;;;;;;;20.83;100.00;97047.13;4985102;28;20082;-66
2022/07/21 00:15:32;;;;;;;19.80;13.77;;;;;;;20.80;100.00;97054.34;4972472;28;20085;-66
2022/07/21 00:17:58;;;;;;;17.63;13.90;;;;;;;20.69;100.00;97064.09;4973259;28;20066;-66
2022/07/21 00:20:24;;;;;;;20.35;13.25;;;;;;;20.56;100.00;97069.47;4972265;28;20061;-64
2022/07/21 00:22:50;;;;;;;16.63;12.18;;;;;;;20.54;100.00;97080.22;4971386;28;20815;-67
2022/07/21 00:25:16;;;;;;;18.02;13.38;;;;;;;20.72;100.00;97077.94;4971896;28;20030;-66
2022/07/21 00:27:42;;;;;;;17.42;12.65;;;;;;;20.83;100.00;97071.41;4972528;28;20022;-65
2022/07/21 00:30:09;;;;;;;15.50;12.05;;;;;;;20.83;100.00;97072.19;4972365;28;20041;-67
2022/07/21 00:32:35;;;;;;;20.35;12.75;;;;;;;20.75;100.00;97057.63;4971140;28;20082;-65
2022/07/21 00:35:01;;;;;;;15.93;12.88;;;;;;;20.60;100.00;97056.28;4972330;28;20053;-65
2022/07/21 00:37:27;;;;;;;17.58;12.60;;;;;;;20.47;100.00;97046.97;4969348;28;20109;-65
2022/07/21 00:39:55;;;;;;;17.48;12.50;;;;;;;20.43;100.00;97049.81;4972356;28;20106;-65
2022/07/21 00:42:23;;;;;;;15.48;13.30;;;;;;;20.30;100.00;97043.28;4970983;28;20788;-64
2022/07/21 00:44:48;;;;;;;17.08;13.13;;;;;;;20.39;100.00;97047.09;4972138;28;20090;-64
2022/07/21 00:47:14;;;;;;;16.40;13.23;;;;;;;20.33;100.00;97057.13;4971779;28;20031;-64
2022/07/21 00:49:40;;;;;;;18.80;13.88;;;;;;;20.14;100.00;97046.72;4972015;28;20428;-65
2022/07/21 00:52:05;;;;;;;17.88;13.52;;;;;;;20.02;100.00;97054.44;4969258;28;20085;-65
2022/07/21 00:54:31;;;;;;;20.42;14.10;;;;;;;20.04;100.00;97056.78;4972386;28;20034;-65
2022/07/21 00:56:56;;;;;;;19.95;13.52;;;;;;;20.04;100.00;97059.56;4971660;28;20478;-64
2022/07/21 00:59:22;;;;;;;17.90;12.65;;;;;;;20.36;100.00;97059.06;4972093;28;20035;-64
2022/07/21 01:01:47;;;;;;;17.70;12.77;;;;;;;20.30;100.00;97054.41;4971772;28;20027;-65
2022/07/21 01:04:13;;;;;;;18.42;14.13;;;;;;;20.14;100.00;97071.75;4971267;28;20019;-65
2022/07/21 01:06:38;;;;;;;19.02;13.40;;;;;;;20.01;100.00;97066.78;4970521;28;20085;-65
2022/07/21 01:09:03;;;;;;;21.80;14.13;;;;;;;20.02;100.00;97062.78;4969306;28;20097;-67
2022/07/21 01:11:30;;;;;;;19.58;14.50;;;;;;;19.99;100.00;97058.06;4971489;28;20042;-66
2022/07/21 01:13:56;;;;;;;20.13;14.60;;;;;;;20.00;100.00;97054.06;4969889;28;20030;-66
2022/07/21 01:16:22;;;;;;;21.40;14.45;;;;;;;20.28;100.00;97063.19;4970360;28;20531;-66
2022/07/21 01:18:47;;;;;;;18.98;13.60;;;;;;;20.32;100.00;97050.00;4970814;28;20058;-66
2022/07/21 01:21:28;;;;;;;16.65;14.45;;;;;;;20.11;100.00;97059.47;4968696;28;20419;-67
2022/07/21 01:23:53;;;;;;;20.85;15.98;;;;;;;19.90;100.00;97063.38;4967115;28;20042;-65
2022/07/21 01:26:18;;;;;;;20.67;15.02;;;;;;;19.84;100.00;97062.25;4969729;28;20033;-65
2022/07/21 01:28:44;;;;;;;22.83;16.33;;;;;;;19.79;100.00;97062.72;4971304;28;20022;-65
2022/07/21 01:31:09;;;;;;;23.40;17.15;;;;;;;19.78;100.00;97055.59;4970668;28;20383;-65
2022/07/21 01:33:34;;;;;;;27.95;18.00;;;;;;;19.71;100.00;97050.91;4968350;28;20015;-66
2022/07/21 01:36:00;;;;;;;23.25;16.73;;;;;;;19.78;100.00;97050.81;4967879;28;20053;-65
2022/07/21 01:43:53;;;;;;;22.55;16.40;;;;;;;19.72;100.00;97060.81;4969211;28;20043;-66
2022/07/21 01:46:18;;;;;;;23.75;16.70;;;;;;;19.75;100.00;97065.53;4969755;28;20039;-65
2022/07/21 01:48:45;;;;;;;26.13;16.55;;;;;;;19.70;100.00;97071.56;4969888;28;20031;-67
2022/07/21 01:51:10;;;;;;;18.98;15.18;;;;;;;19.67;100.00;97064.84;4967154;28;20038;-65
2022/07/21 01:53:36;;;;;;;19.53;14.90;;;;;;;19.80;100.00;97067.84;4932514;28;1033980;-65
2022/07/21 01:56:02;;;;;;;17.38;14.63;;;;;;;19.84;100.00;97068.63;4971399;28;20031;-66
2022/07/21 01:58:29;;;;;;;16.67;13.80;;;;;;;19.79;100.00;97066.31;4971388;28;20034;-65
2022/07/21 02:00:54;;;;;;;19.75;14.77;;;;;;;19.71;100.00;97059.22;4970780;28;20493;-65
2022/07/21 02:03:20;;;;;;;20.77;14.30;;;;;;;19.56;100.00;97078.09;4969791;28;20039;-65
2022/07/21 02:05:45;;;;;;;21.65;15.00;;;;;;;19.59;100.00;97071.72;4968488;28;20054;-66
2022/07/21 02:08:10;;;;;;;19.65;14.63;;;;;;;19.55;100.00;97082.06;4968354;28;20035;-66
2022/07/21 02:10:36;;;;;;;18.83;15.27;;;;;;;19.62;100.00;97081.19;4968731;28;20035;-67
2022/07/21 02:13:03;;;;;;;20.67;15.25;;;;;;;19.76;100.00;97081.03;4970941;28;20092;-66
2022/07/21 02:15:30;;;;;;;20.75;15.73;;;;;;;19.70;100.00;97082.69;4970924;28;20034;-67
2022/07/21 02:17:56;;;;;;;17.23;14.52;;;;;;;19.54;100.00;97074.94;4971312;28;20381;-67
2022/07/21 02:20:22;;;;;;;20.20;14.18;;;;;;;19.68;100.00;97076.75;4969101;28;20100;-67
2022/07/21 02:22:49;;;;;;;22.55;15.40;;;;;;;19.68;100.00;97065.66;4967830;28;20027;-66
2022/07/21 02:25:14;;;;;;;20.90;16.05;;;;;;;19.71;100.00;97064.00;4969626;28;20033;-65
2022/07/21 02:27:41;;;;;;;21.33;15.43;;;;;;;19.73;100.00;97059.63;4969538;28;20026;-65
2022/07/21 02:30:07;;;;;;;18.83;14.75;;;;;;;19.74;100.00;97066.00;4968071;28;20035;-65
2022/07/21 02:32:33;;;;;;;19.15;13.75;;;;;;;19.80;100.00;97067.84;4971736;28;20263;-66
2022/07/21 02:34:58;;;;;;;18.73;13.48;;;;;;;19.92;100.00;97077.63;4969592;28;20396;-65
2022/07/21 02:37:23;;;;;;;21.90;13.48;;;;;;;19.91;100.00;97072.50;4969262;28;20041;-66
2022/07/21 02:39:49;;;;;;;17.65;13.27;;;;;;;19.90;100.00;97076.47;4970505;28;20023;-65
2022/07/21 02:42:14;;;;;;;22.88;14.07;;;;;;;19.93;100.00;97072.84;4970946;28;20460;-66
2022/07/21 02:44:40;;;;;;;17.45;13.55;;;;;;;19.93;100.00;97070.84;4969504;28;20439;-66
2022/07/21 02:47:05;;;;;;;22.70;14.30;;;;;;;19.91;100.00;97078.03;4969014;28;20035;-66
2022/07/21 02:49:31;;;;;;;17.25;13.52;;;;;;;19.95;100.00;97087.13;4971132;28;20157;-66
2022/07/21 02:51:57;;;;;;;17.45;13.45;;;;;;;19.89;100.00;97081.25;4963419;28;20408;-66
2022/07/21 02:54:22;;;;;;;22.40;14.60;;;;;;;19.83;100.00;97080.94;4969359;28;20046;-65
2022/07/21 02:56:48;;;;;;;20.60;14.52;;;;;;;19.90;100.00;97080.06;4968796;28;20457;-66
2022/07/21 02:59:13;;;;;;;20.98;14.45;;;;;;;19.73;100.00;97083.81;4969790;28;20039;-65
2022/07/21 03:01:38;;;;;;;20.58;14.90;;;;;;;19.72;100.00;97085.06;4969731;28;20122;-66
2022/07/21 03:04:04;;;;;;;19.63;14.05;;;;;;;19.75;100.00;97082.22;4969455;28;20519;-65
2022/07/21 03:06:29;;;;;;;19.92;14.55;;;;;;;19.71;100.00;97080.69;4961739;28;20720;-65
2022/07/21 03:08:55;;;;;;;24.52;14.13;;;;;;;19.81;100.00;97074.22;4968038;28;20117;-66
2022/07/21 03:11:20;;;;;;;18.33;15.05;;;;;;;19.84;100.00;97079.72;4970772;28;20031;-65
2022/07/21 03:13:46;;;;;;;18.90;14.13;;;;;;;19.88;100.00;97076.91;4970427;28;20835;-65
2022/07/21 03:16:11;;;;;;;21.42;15.15;;;;;;;19.80;100.00;97075.41;4968826;28;20395;-66
2022/07/21 03:18:36;;;;;;;18.20;13.85;;;;;;;19.86;100.00;97082.88;4969909;28;20356;-66
2022/07/21 03:21:02;;;;;;;19.38;13.88;;;;;;;19.88;100.00;97082.47;4968752;28;20138;-66
2022/07/21 03:23:28;;;;;;;18.73;13.65;;;;;;;19.89;100.00;97086.03;4967161;28;20034;-66
2022/07/21 03:25:53;;;;;;;16.80;13.38;;;;;;;19.87;100.00;97083.66;4965924;28;20502;-67
2022/07/21 03:28:18;;;;;;;20.52;14.32;;;;;;;19.83;100.00;97071.81;4969435;28;20070;-67
2022/07/21 03:30:44;;;;;;;18.48;14.40;;;;;;;19.79;100.00;97073.84;4969162;28;20558;-66
2022/07/21 03:33:09;;;;;;;19.75;13.80;;;;;;;19.83;100.00;97077.38;4968653;28;20373;-66
2022/07/21 03:35:37;;;;;;;21.55;14.48;;;;;;;19.83;100.00;97071.81;4969201;28;20456;-66
2022/07/21 03:38:04;;;;;;;19.25;14.30;;;;;;;19.95;100.00;97073.22;4974941;28;20602;-65
2022/07/21 03:40:33;;;;;;;17.95;14.20;;;;;;;19.83;100.00;97078.16;4974981;28;20046;-66
2022/07/21 03:43:00;;;;;;;20.75;14.63;;;;;;;19.83;100.00;97086.50;4975171;28;20102;-65
2022/07/21 03:45:29;;;;;;;22.58;15.45;;;;;;;19.72;100.00;97091.38;4967741;28;20041;-64
2022/07/21 03:47:55;;;;;;;25.20;16.90;;;;;;;19.56;100.00;97099.53;4969209;28;20039;-66
2022/07/21 03:50:21;;;;;;;21.02;15.63;;;;;;;19.64;100.00;97103.78;4967904;28;20058;-66
2022/07/21 03:52:47;;;;;;;19.92;15.57;;;;;;;19.66;100.00;97106.94;4968100;28;20093;-67
2022/07/21 03:55:17;;;;;;;22.73;16.50;;;;;;;19.73;100.00;97115.19;4970915;28;20033;-67
2022/07/21 03:57:46;;;;;;;21.02;14.75;;;;;;;19.80;100.00;97114.31;4973736;28;20105;-64
2022/07/21 04:00:24;;;;;;;22.25;14.23;;;;;;;20.03;100.00;97119.19;4971329;28;20081;-65
2022/07/21 04:02:50;;;;;;;18.90;13.80;;;;;;;20.13;100.00;97118.25;4971067;28;20090;-64
2022/07/21 04:05:17;;;;;;;21.27;13.82;;;;;;;20.20;100.00;97118.13;4973346;28;20427;-64
2022/07/21 04:07:45;;;;;;;18.75;13.55;;;;;;;20.28;100.00;97112.47;4969360;28;20492;-65
2022/07/21 04:10:13;;;;;;;21.02;14.20;;;;;;;20.29;100.00;97116.81;4968665;28;20034;-64
2022/07/21 04:12:40;;;;;;;21.58;14.32;;;;;;;20.28;100.00;97124.38;4980395;28;20042;-63
2022/07/21 04:15:07;;;;;;;19.13;15.73;;;;;;;20.05;100.00;97122.31;4953388;28;20042;-64
2022/07/21 04:17:33;;;;;;;19.08;14.93;;;;;;;19.91;100.00;97125.31;4957384;28;20070;-62
2022/07/21 04:19:58;;;;;;;20.25;14.70;;;;;;;19.98;100.00;97125.19;4954568;28;20134;-62
2022/07/21 04:22:24;;;;;;;17.98;13.75;;;;;;;20.13;100.00;97125.78;4956751;28;20121;-63
2022/07/21 04:24:49;;;;;;;18.70;14.23;;;;;;;20.14;100.00;97119.78;4963676;28;20193;-61
2022/07/21 04:27:15;;;;;;;20.35;13.55;;;;;;;20.24;100.00;97120.84;4957455;28;20050;-63
2022/07/21 04:29:40;;;;;;;22.08;15.40;;;;;;;20.00;100.00;97123.56;4960827;28;20054;-63
2022/07/21 04:32:06;;;;;;;21.50;14.45;;;;;;;20.05;100.00;97128.66;4946941;28;20043;-64
2022/07/21 04:34:32;;;;;;;17.55;14.20;;;;;;;20.18;100.00;97126.09;4943954;28;20039;-63
2022/07/21 04:36:57;;;;;;;19.42;14.40;;;;;;;20.22;100.00;97121.28;4943644;28;20081;-64
2022/07/21 04:39:22;;;;;;;19.75;14.55;;;;;;;20.30;100.00;97119.16;4938207;28;20386;-63
2022/07/21 04:41:48;;;;;;;20.38;14.38;;;;;;;20.40;100.00;97123.78;4952257;28;20047;-67
2022/07/21 04:44:13;;;;;;;18.63;13.10;;;;;;;20.43;100.00;97120.13;4946562;28;20113;-64
2022/07/21 04:46:39;;;;;;;21.85;13.38;;;;;;;20.42;100.00;97120.59;4954043;28;20509;-65
2022/07/21 04:49:04;;;;;;;18.42;14.35;;;;;;;20.36;100.00;97125.03;4965985;28;20038;-65
2022/07/21 04:51:30;;;;;;;23.92;15.65;;;;;;;20.23;100.00;97130.41;4990035;28;20030;-63
2022/07/21 04:53:55;;;;;;;21.48;16.33;;;;;;;20.11;100.00;97131.75;4991962;28;20060;-63
2022/07/21 04:56:20;;;;;;;21.27;15.35;;;;;;;20.03;100.00;97138.63;4992359;28;20026;-64
2022/07/21 04:58:46;;;;;;;20.33;15.25;;;;;;;20.10;100.00;97138.53;4991204;28;20060;-66
2022/07/21 05:01:11;;;;;;;22.75;15.38;;;;;;;20.25;100.00;97139.88;4992227;28;20041;-65
2022/07/21 05:03:36;;;;;;;22.00;14.80;;;;;;;20.44;100.00;97143.97;4992110;28;20164;-65
2022/07/21 05:06:02;;;;;;;18.48;14.65;;;;;;;20.52;100.00;97146.66;4990657;28;20101;-65
2022/07/21 05:08:27;;;;;;;21.67;13.75;;;;;;;20.57;100.00;97152.50;4991833;28;20092;-64
2022/07/21 05:10:53;;;;;;;28.75;19.58;;;;;;;20.50;100.00;97152.63;4992131;28;20038;-64
2022/07/21 05:13:19;;;;;;;31.63;18.33;;;;;;;20.42;100.00;97142.84;4992266;28;20036;-65
2022/07/21 05:15:44;;;;;;;20.05;14.85;;;;;;;20.41;100.00;97144.81;4991210;28;20133;-64
2022/07/21 05:18:09;;;;;;;20.38;14.02;;;;;;;20.58;100.00;97147.72;4991770;28;20034;-63
2022/07/21 05:20:35;;;;;;;18.55;13.32;;;;;;;20.76;100.00;97156.63;4991541;28;20496;-65
2022/07/21 05:23:01;;;;;;;19.52;13.52;;;;;;;20.90;100.00;97150.00;4991669;28;20096;-65
2022/07/21 05:25:28;;;;;;;17.98;13.10;;;;;;;21.03;100.00;97149.41;4991362;28;20038;-65
2022/07/21 05:27:54;;;;;;;19.38;13.38;;;;;;;21.13;100.00;97156.78;4990559;28;20097;-65
2022/07/21 05:30:19;;;;;;;16.98;12.93;;;;;;;21.22;100.00;97159.00;4991584;28;20073;-65
2022/07/21 05:32:44;;;;;;;20.70;14.18;;;;;;;21.34;100.00;97161.94;4992502;28;20033;-65
2022/07/21 05:35:11;;;;;;;18.67;13.27;;;;;;;21.34;100.00;97163.97;4992147;28;20034;-65
2022/07/21 05:37:40;;;;;;;19.02;13.52;;;;;;;21.30;100.00;97161.25;4990247;28;20030;-65
2022/07/21 05:40:10;;;;;;;17.70;13.65;;;;;;;21.40;100.00;97159.44;4991487;28;20034;-65
2022/07/21 05:42:35;;;;;;;19.65;13.43;;;;;;;21.53;100.00;97162.41;4991475;28;20517;-65
2022/07/21 05:45:04;;;;;;;16.48;12.75;;;;;;;21.50;100.00;97158.50;4991529;28;20054;-65
2022/07/21 05:47:31;;;;;;;15.30;12.75;;;;;;;21.67;100.00;97162.13;4990906;28;20427;-65
2022/07/21 05:49:57;;;;;;;18.75;12.82;;;;;;;21.90;100.00;97168.84;4990876;28;20038;-65
2022/07/21 05:52:22;;;;;;;15.98;12.38;;;;;;;22.10;100.00;97166.78;4991797;28;20522;-65
2022/07/21 05:54:48;;;;;;;18.73;12.45;;;;;;;22.08;100.00;97166.44;4991015;28;20062;-65
2022/07/21 05:57:13;;;;;;;16.63;13.25;;;;;;;22.07;100.00;97178.81;4990698;28;20483;-65
2022/07/21 05:59:39;;;;;;;17.25;13.27;;;;;;;22.17;100.00;97177.00;4991259;28;20514;-65
2022/07/21 06:02:04;;;;;;;16.80;12.68;;;;;;;22.35;100.00;97182.22;4991799;28;20046;-65
2022/07/21 06:04:30;;;;;;;16.42;13.23;;;;;;;22.37;100.00;97179.78;4991012;28;20022;-64
2022/07/21 06:06:55;;;;;;;18.50;12.73;;;;;;;22.60;100.00;97180.84;4990839;28;20550;-64
2022/07/21 06:09:21;;;;;;;14.68;12.80;;;;;;;22.68;100.00;97187.84;4990856;28;20029;-64
2022/07/21 06:11:46;;;;;;;15.50;11.88;;;;;;;22.79;100.00;97187.56;4991518;28;20607;-66
2022/07/21 06:14:12;;;;;;;19.95;13.00;;;;;;;22.89;100.00;97183.75;4991657;28;20061;-64
2022/07/21 06:16:37;;;;;;;16.92;12.68;;;;;;;22.93;100.00;97189.25;4990877;28;20341;-64
2022/07/21 06:19:06;;;;;;;17.38;12.60;;;;;;;22.91;100.00;97184.84;4991305;28;20052;-65
2022/07/21 06:21:32;;;;;;;16.30;12.20;;;;;;;22.76;100.00;97186.44;4991091;28;20499;-65
2022/07/21 06:23:57;;;;;;;19.15;13.60;;;;;;;22.63;100.00;97193.94;4990669;28;20076;-65
2022/07/21 06:26:22;;;;;;;16.95;13.05;;;;;;;22.74;100.00;97194.44;4990673;28;20284;-65
2022/07/21 06:28:48;;;;;;;18.58;14.13;;;;;;;22.82;100.00;97193.06;4990673;28;20026;-65
2022/07/21 06:31:13;;;;;;;19.17;12.82;;;;;;;22.90;100.00;97186.09;4989510;28;20037;-64
2022/07/21 06:33:38;;;;;;;17.05;12.10;;;;;;;22.89;100.00;97190.09;4990230;28;20140;-65
2022/07/21 06:36:06;;;;;;;16.02;12.93;;;;;;;22.88;100.00;97198.91;4989950;28;20042;-65
2022/07/21 06:38:32;;;;;;;19.15;13.15;;;;;;;22.86;100.00;97201.34;4990592;28;20042;-66
2022/07/21 06:40:57;;;;;;;19.90;13.00;;;;;;;22.88;100.00;97196.13;4990390;28;20030;-65
2022/07/21 06:43:23;;;;;;;23.80;13.27;;;;;;;22.94;100.00;97201.97;4990313;28;20136;-64
2022/07/21 06:45:48;;;;;;;16.50;12.88;;;;;;;22.95;100.00;97209.13;5005010;28;20023;-65
2022/07/21 06:48:14;;;;;;;22.33;13.73;;;;;;;22.61;100.00;97210.34;4990288;28;20046;-66
2022/07/21 06:50:39;;;;;;;19.67;13.52;;;;;;;22.56;100.00;97203.25;4990129;28;20034;-66
2022/07/21 06:53:05;;;;;;;17.10;12.70;;;;;;;22.68;100.00;97212.97;4990189;28;20054;-65
2022/07/21 06:55:31;;;;;;;21.00;13.43;;;;;;;22.79;100.00;97204.31;4988539;28;20125;-65
2022/07/21 06:57:57;;;;;;;17.73;13.20;;;;;;;22.79;100.00;97202.31;4990468;28;20546;-66
2022/07/21 07:00:23;;;;;;;16.58;12.50;;;;;;;22.80;100.00;97208.69;4990252;28;20037;-66
2022/07/21 07:02:48;;;;;;;16.85;12.68;;;;;;;22.88;100.00;97208.06;4990079;28;20037;-66
2022/07/21 07:05:14;;;;;;;22.40;14.57;;;;;;;22.71;100.00;97220.47;4990333;28;20058;-65
2022/07/21 07:07:40;;;;;;;18.63;13.10;;;;;;;22.94;100.00;97216.72;4990153;28;20038;-65
2022/07/21 07:10:06;;;;;;;19.77;13.55;;;;;;;23.04;100.00;97214.88;4990506;28;20539;-64
2022/07/21 07:12:31;;;;;;;18.00;12.65;;;;;;;23.00;100.00;97217.00;4990129;28;20439;-65
2022/07/21 07:14:57;;;;;;;18.80;12.35;;;;;;;22.98;100.00;97219.44;4988904;28;20038;-64
2022/07/21 07:17:22;;;;;;;19.40;12.93;;;;;;;23.15;100.00;97212.63;4989727;28;20479;-64
2022/07/21 07:19:48;;;;;;;18.35;13.88;;;;;;;22.90;100.00;97216.81;4990263;28;20039;-66
2022/07/21 07:22:14;;;;;;;19.77;14.05;;;;;;;22.74;100.00;97219.59;4992942;28;20030;-65
2022/07/21 07:24:39;;;;;;;19.10;13.55;;;;;;;22.78;100.00;97223.09;4993822;28;20074;-66
2022/07/21 07:27:05;;;;;;;15.40;13.30;;;;;;;22.75;100.00;97218.38;4993372;28;20040;-66
2022/07/21 07:29:31;;;;;;;17.63;13.30;;;;;;;22.82;100.00;97226.59;4994088;28;20089;-66
2022/07/21 07:31:57;;;;;;;18.27;13.48;;;;;;;23.01;100.00;97224.94;4993926;28;20026;-63
2022/07/21 07:34:23;;;;;;;18.05;12.48;;;;;;;23.04;100.00;97231.66;4993417;28;20510;-65
2022/07/21 07:36:48;;;;;;;19.77;12.10;;;;;;;23.19;100.00;97229.31;4993391;28;20038;-63
2022/07/21 07:39:15;;;;;;;17.45;14.05;;;;;;;23.23;100.00;97230.78;4993629;28;20034;-63
2022/07/21 07:41:41;;;;;;;17.15;11.70;;;;;;;23.63;100.00;97229.75;4993712;28;20038;-64
2022/07/21 07:44:06;;;;;;;16.05;11.52;;;;;;;24.05;100.00;97230.56;4993417;28;20034;-64
2022/07/21 07:46:32;;;;;;;18.88;13.48;;;;;;;24.32;100.00;97234.22;4993033;28;20109;-65
2022/07/21 07:48:59;;;;;;;16.10;12.57;;;;;;;24.27;100.00;97229.16;4994205;28;20472;-66
2022/07/21 07:51:24;;;;;;;17.73;12.10;;;;;;;24.45;100.00;97228.63;4993232;28;20030;-65
2022/07/21 07:53:49;;;;;;;18.63;12.20;;;;;;;24.47;100.00;97224.16;4993165;28;20148;-66
2022/07/21 07:56:15;;;;;;;15.77;11.35;;;;;;;24.82;100.00;97221.50;4993026;28;20026;-63
2022/07/21 07:58:40;;;;;;;16.15;10.77;;;;;;;24.64;99.83;97226.88;4993575;28;20034;-64
2022/07/21 08:01:06;;;;;;;14.98;11.57;;;;;;;24.81;99.40;97225.53;4993731;28;20034;-65
2022/07/21 08:03:31;;;;;;;18.38;11.30;;;;;;;24.61;100.00;97220.94;4993920;28;20429;-64
2022/07/21 08:06:03;;;;;;;14.05;11.35;;;;;;;24.19;100.00;97223.78;4993768;28;20037;-64
2022/07/21 08:08:30;;;;;;;18.00;11.75;;;;;;;24.02;100.00;97217.50;5004735;28;20089;-65
2022/07/21 08:10:56;;;;;;;19.42;12.52;;;;;;;24.12;100.00;97228.81;4996647;28;20049;-65
2022/07/21 08:13:22;;;;;;;17.50;11.60;;;;;;;24.41;100.00;97223.91;4992902;28;20026;-65
2022/07/21 08:15:48;;;;;;;18.67;11.57;;;;;;;24.48;100.00;97230.53;4992518;28;20030;-64
2022/07/21 08:18:15;;;;;;;16.38;11.60;;;;;;;24.61;100.00;97228.56;4993050;28;20054;-64
2022/07/21 08:20:41;;;;;;;19.33;11.45;;;;;;;24.89;100.00;97229.66;4993039;28;20113;-65
2022/07/21 08:23:06;;;;;;;15.45;10.70;;;;;;;24.99;97.52;97231.34;4974882;28;20066;-63
2022/07/21 08:25:32;;;;;;;16.60;11.32;;;;;;;25.68;94.37;97232.63;4972563;28;20137;-65
2022/07/21 08:27:58;;;;;;;17.08;11.57;;;;;;;25.33;94.78;97226.25;4973031;28;20390;-65
2022/07/21 08:30:23;;;;;;;15.57;10.02;;;;;;;25.95;93.06;97231.31;4971414;28;20058;-66
2022/07/21 08:32:49;;;;;;;17.90;10.65;;;;;;;26.36;90.08;97231.41;4972667;28;20023;-65
2022/07/21 08:35:14;;;;;;;11.52;9.82;;;;;;;26.89;87.69;97237.75;4974098;28;20066;-65
2022/07/21 08:37:40;;;;;;;15.18;10.05;;;;;;;27.15;82.66;97233.91;4973175;28;20030;-67
2022/07/21 08:40:08;;;;;;;17.77;9.68;;;;;;;27.06;81.29;97234.66;4973097;28;20030;-67
2022/07/21 08:42:34;;;;;;;14.50;10.15;;;;;;;26.87;80.51;97240.25;4972857;28;20117;-66
2022/07/21 08:45:00;;;;;;;14.90;9.60;;;;;;;26.91;77.47;97239.31;4974697;28;20048;-67
2022/07/21 08:47:26;;;;;;;15.82;9.77;;;;;;;26.64;78.04;97237.97;4979792;28;20030;-66
2022/07/21 08:49:53;;;;;;;14.40;10.35;;;;;;;26.47;78.82;97240.19;4974433;28;20038;-66
2022/07/21 08:52:19;;;;;;;16.50;10.32;;;;;;;26.00;81.99;97241.16;4973115;28;20038;-67
2022/07/21 08:54:44;;;;;;;12.45;8.35;;;;;;;25.76;81.06;97236.75;4972693;28;20038;-68
2022/07/21 08:57:10;;;;;;;11.88;8.32;;;;;;;25.76;77.88;97238.78;4972345;28;20045;-68
2022/07/21 08:59:35;;;;;;;12.10;8.23;;;;;;;25.84;76.84;97242.91;4972534;28;20057;-67
2022/07/21 09:02:01;;;;;;;13.52;8.35;;;;;;;26.24;72.74;97249.91;4972627;28;20030;-65
2022/07/21 09:04:33;;;;;;;19.73;11.70;;;;;;;26.61;71.81;97241.69;4972682;28;20499;-66
2022/07/21 09:07:07;;;;;;;11.52;8.52;;;;;;;26.49;71.61;97248.94;4970873;28;20041;-67
2022/07/21 09:09:35;;;;;;;10.82;7.95;;;;;;;26.04;74.42;97242.59;4972230;28;20041;-68
2022/07/21 09:12:02;;;;;;;12.52;8.98;;;;;;;26.08;75.38;97246.06;4972242;28;20086;-67
2022/07/21 09:14:31;;;;;;;12.20;9.18;;;;;;;26.30;74.51;97240.41;4972506;28;20078;-67
2022/07/21 09:16:58;;;;;;;17.20;10.80;;;;;;;26.37;75.63;97242.16;4972302;28;20062;-69
2022/07/21 09:19:31;;;;;;;12.70;9.30;;;;;;;26.33;73.83;97239.50;4972365;28;20030;-66
2022/07/21 09:21:59;;;;;;;12.65;8.35;;;;;;;26.47;73.40;97240.19;4972134;28;20035;-66
2022/07/21 09:24:37;;;;;;;13.15;7.63;;;;;;;25.67;74.83;97235.91;4972209;28;20058;-67
2022/07/21 09:27:12;;;;;;;10.87;8.60;;;;;;;26.35;75.22;97239.03;4972265;28;20035;-68
2022/07/21 09:29:44;;;;;;;10.30;7.43;;;;;;;27.01;70.15;97236.06;4972381;28;20034;-67
2022/07/21 09:32:14;;;;;;;14.82;7.95;;;;;;;27.05;70.83;97233.88;4972217;28;20023;-67
2022/07/21 09:34:39;;;;;;;11.88;7.57;;;;;;;27.04;67.03;97231.53;4971782;28;20030;-67
2022/07/21 09:37:06;;;;;;;10.65;7.18;;;;;;;27.17;67.15;97232.22;4971892;28;20039;-66
2022/07/21 09:39:46;;;;;;;10.20;6.93;;;;;;;26.85;67.93;97234.31;4971645;28;20037;-68
2022/07/21 09:42:16;;;;;;;11.48;7.57;;;;;;;27.21;66.73;97232.06;4970088;28;20038;-68
2022/07/21 09:44:46;;;;;;;10.02;6.95;;;;;;;28.38;63.21;97233.00;4951982;28;20050;-75
2022/07/21 09:47:16;;;;;;;11.15;7.68;;;;;;;28.49;61.75;97235.31;4964321;28;20038;-67
2022/07/21 09:49:43;;;;;;;11.10;7.45;;;;;;;28.65;59.80;97228.53;4969219;28;20102;-67
2022/07/21 09:52:18;;;;;;;8.50;6.45;;;;;;;28.52;59.76;97223.88;4963610;28;20448;-66
2022/07/21 09:54:44;;;;;;;11.32;6.85;;;;;;;29.03;59.01;97229.94;4966002;28;20680;-67
2022/07/21 09:57:09;;;;;;;10.15;6.90;;;;;;;29.42;56.85;97227.22;4971110;28;20031;-67
2022/07/21 09:59:36;;;;;;;9.85;6.15;;;;;;;28.86;57.10;97230.31;4971265;28;20066;-67
2022/07/21 10:02:02;;;;;;;12.90;7.72;;;;;;;28.28;58.26;97231.47;4971331;28;20392;-67
2022/07/21 10:04:30;;;;;;;10.75;6.57;;;;;;;27.92;59.53;97219.78;4971300;28;20429;-67
2022/07/21 10:06:56;;;;;;;9.18;6.63;;;;;;;27.56;60.68;97217.75;4970959;28;20024;-68
2022/07/21 10:09:22;;;;;;;10.23;5.38;;;;;;;27.62;58.70;97221.47;4971194;28;20471;-68
2022/07/21 10:11:48;;;;;;;7.72;5.63;;;;;;;27.09;59.67;97222.50;4985953;28;20039;-67
2022/07/21 10:14:13;;;;;;;8.77;5.80;;;;;;;26.34;60.39;97223.44;4970763;28;20468;-67
2022/07/21 10:16:39;;;;;;;10.80;6.43;;;;;;;26.20;61.47;97221.97;4983400;28;20400;-68
2022/07/21 10:19:18;;;;;;;11.63;6.95;;;;;;;26.22;63.61;97216.66;4966860;28;20503;-68
2022/07/21 10:21:49;;;;;;;9.40;6.07;;;;;;;26.73;63.80;97218.34;4969697;28;20046;-67
2022/07/21 10:24:15;;;;;;;10.70;6.30;;;;;;;26.80;62.25;97212.44;4970546;28;20027;-68
2022/07/21 10:27:04;;;;;;;12.60;6.00;;;;;;;26.79;60.88;97216.47;4970492;28;20101;-69
2022/07/21 10:29:48;;;;;;;11.43;6.25;;;;;;;27.25;59.14;97213.78;4970041;28;20101;-70
2022/07/21 10:32:19;;;;;;;10.40;6.38;;;;;;;27.74;59.84;97214.16;4970119;28;20033;-69
2022/07/21 10:34:45;;;;;;;10.45;6.43;;;;;;;27.88;59.29;97215.56;4969192;28;20082;-69
2022/07/21 10:37:30;;;;;;;13.43;6.72;;;;;;;27.81;61.12;97211.00;4970368;28;20038;-67
2022/07/21 10:39:56;;;;;;;11.18;7.20;;;;;;;27.69;58.96;97217.59;4996986;28;20023;-69
2022/07/21 10:42:21;;;;;;;11.02;6.57;;;;;;;27.52;60.75;97215.09;4971244;28;20078;-69
2022/07/21 10:44:47;;;;;;;9.15;6.40;;;;;;;27.56;59.01;97209.31;4971539;28;20026;-70
2022/07/21 10:47:16;;;;;;;9.80;6.38;;;;;;;27.61;58.67;97220.72;4971253;28;20041;-70
2022/07/21 10:49:48;;;;;;;9.57;6.10;;;;;;;27.49;59.01;97210.38;4970593;28;20129;-68
2022/07/21 10:52:34;;;;;;;9.50;6.25;;;;;;;27.49;60.63;97207.56;4970499;28;20030;-71
2022/07/21 10:55:17;;;;;;;10.52;5.93;;;;;;;27.66;59.91;97210.88;4968630;28;20039;-68
2022/07/21 10:57:47;;;;;;;9.20;5.75;;;;;;;28.04;57.95;97209.63;4972579;28;20039;-68
2022/07/21 11:00:29;;;;;;;9.73;4.47;;;;;;;28.27;51.73;97202.53;4975030;28;20425;-69
2022/07/21 11:02:59;;;;;;;6.55;4.32;;;;;;;27.94;51.29;97205.25;4974704;28;20037;-69
2022/07/21 11:05:27;;;;;;;8.10;4.70;;;;;;;28.20;52.31;97200.03;4974471;28;20031;-69
2022/07/21 11:08:13;;;;;;;7.15;3.63;;;;;;;27.41;49.93;97206.34;4973210;28;20113;-71
2022/07/21 11:10:51;;;;;;;7.22;4.55;;;;;;;27.15;52.01;97208.59;4971703;28;20027;-69
2022/07/21 11:13:19;;;;;;;10.05;5.00;;;;;;;27.74;51.10;97200.84;4988176;28;20471;-72
2022/07/21 11:15:53;;;;;;;8.45;4.20;;;;;;;28.15;49.79;97190.19;4974204;28;20075;-68
2022/07/21 11:18:26;;;;;;;10.18;5.80;;;;;;;28.40;55.50;97194.66;4970545;28;20027;-71